sensor_id;sensor_type;location;lat;lon;timestamp;P1;durP1;ratioP1;P2;durP2;ratioP2
5845;SDS011;2949;50.778;7.094;2023-03-01T00:00:54;15.10;;;8.63;;
5845;SDS011;2949;50.778;7.094;2023-03-01T00:03:36;15.03;;;8.83;;
5845;SDS011;2949;50.778;7.094;2023-03-01T00:06:02;16.67;;;9.17;;
5845;SDS011;2949;50.778;7.094;2023-03-01T00:08:28;15.00;;;8.47;;
5845;SDS011;2949;50.778;7.094;2023-03-01T00:11:02;16.20;;;9.30;;
5845;SDS011;2949;50.778;7.094;2023-03-01T00:13:31;14.50;;;8.70;;
5845;SDS011;2949;50.778;7.094;2023-03-01T00:15:56;19.17;;;9.73;;
5845;SDS011;2949;50.778;7.094;2023-03-01T00:18:22;20.77;;;10.33;;
5845;SDS011;2949;50.778;7.094;2023-03-01T00:20:51;16.20;;;8.80;;
5845;SDS011;2949;50.778;7.094;2023-03-01T00:23:18;15.30;;;9.00;;
5845;SDS011;2949;50.778;7.094;2023-03-01T00:25:44;15.10;;;9.73;;
5845;SDS011;2949;50.778;7.094;2023-03-01T00:28:10;20.60;;;10.60;;
5845;SDS011;2949;50.778;7.094;2023-03-01T00:30:36;19.77;;;11.00;;
5845;SDS011;2949;50.778;7.094;2023-03-01T00:33:01;26.90;;;10.10;;
5845;SDS011;2949;50.778;7.094;2023-03-01T00:35:27;24.83;;;11.20;;
5845;SDS011;2949;50.778;7.094;2023-03-01T00:37:52;17.60;;;9.40;;
5845;SDS011;2949;50.778;7.094;2023-03-01T00:40:18;24.13;;;10.27;;
5845;SDS011;2949;50.778;7.094;2023-03-01T00:42:43;21.63;;;9.00;;
5845;SDS011;2949;50.778;7.094;2023-03-01T00:45:09;21.30;;;9.90;;
5845;SDS011;2949;50.778;7.094;2023-03-01T00:47:35;15.73;;;9.60;;
5845;SDS011;2949;50.778;7.094;2023-03-01T00:50:00;17.07;;;8.57;;
5845;SDS011;2949;50.778;7.094;2023-03-01T00:52:26;16.87;;;9.33;;
5845;SDS011;2949;50.778;7.094;2023-03-01T00:54:52;17.10;;;9.30;;
5845;SDS011;2949;50.778;7.094;2023-03-01T00:57:18;17.80;;;9.90;;
5845;SDS011;2949;50.778;7.094;2023-03-01T00:59:44;21.93;;;10.07;;
5845;SDS011;2949;50.778;7.094;2023-03-01T01:02:09;16.53;;;9.50;;
5845;SDS011;2949;50.778;7.094;2023-03-01T01:04:35;20.90;;;9.83;;
5845;SDS011;2949;50.778;7.094;2023-03-01T01:07:00;17.80;;;10.20;;
5845;SDS011;2949;50.778;7.094;2023-03-01T01:09:26;19.37;;;9.73;;
5845;SDS011;2949;50.778;7.094;2023-03-01T01:11:51;23.60;;;9.70;;
5845;SDS011;2949;50.778;7.094;2023-03-01T01:14:17;14.63;;;9.50;;
5845;SDS011;2949;50.778;7.094;2023-03-01T01:16:43;23.30;;;10.40;;
5845;SDS011;2949;50.778;7.094;2023-03-01T01:19:10;14.80;;;9.03;;
5845;SDS011;2949;50.778;7.094;2023-03-01T01:21:36;19.77;;;9.53;;
5845;SDS011;2949;50.778;7.094;2023-03-01T01:24:02;14.40;;;8.67;;
5845;SDS011;2949;50.778;7.094;2023-03-01T01:26:30;16.03;;;9.20;;
5845;SDS011;2949;50.778;7.094;2023-03-01T01:28:57;18.13;;;9.17;;
5845;SDS011;2949;50.778;7.094;2023-03-01T01:31:24;17.67;;;10.00;;
5845;SDS011;2949;50.778;7.094;2023-03-01T01:33:50;23.50;;;10.60;;
5845;SDS011;2949;50.778;7.094;2023-03-01T01:36:17;14.73;;;8.63;;
5845;SDS011;2949;50.778;7.094;2023-03-01T01:38:43;20.60;;;9.00;;
5845;SDS011;2949;50.778;7.094;2023-03-01T01:41:09;19.17;;;9.20;;
5845;SDS011;2949;50.778;7.094;2023-03-01T01:43:38;19.53;;;9.73;;
5845;SDS011;2949;50.778;7.094;2023-03-01T01:46:07;17.40;;;8.77;;
5845;SDS011;2949;50.778;7.094;2023-03-01T01:48:56;19.57;;;9.67;;
5845;SDS011;2949;50.778;7.094;2023-03-01T01:51:31;18.10;;;8.90;;
5845;SDS011;2949;50.778;7.094;2023-03-01T01:54:10;18.53;;;9.63;;
5845;SDS011;2949;50.778;7.094;2023-03-01T01:56:42;24.47;;;10.10;;
5845;SDS011;2949;50.778;7.094;2023-03-01T01:59:12;22.40;;;10.37;;
5845;SDS011;2949;50.778;7.094;2023-03-01T02:01:39;19.07;;;9.53;;
5845;SDS011;2949;50.778;7.094;2023-03-01T02:04:04;20.83;;;10.97;;
5845;SDS011;2949;50.778;7.094;2023-03-01T02:06:34;29.33;;;10.17;;
5845;SDS011;2949;50.778;7.094;2023-03-01T02:09:21;19.67;;;9.30;;
5845;SDS011;2949;50.778;7.094;2023-03-01T02:11:48;19.03;;;8.50;;
5845;SDS011;2949;50.778;7.094;2023-03-01T02:14:16;21.27;;;10.53;;
5845;SDS011;2949;50.778;7.094;2023-03-01T02:16:42;20.00;;;9.70;;
5845;SDS011;2949;50.778;7.094;2023-03-01T02:19:08;15.83;;;9.30;;
5845;SDS011;2949;50.778;7.094;2023-03-01T02:21:52;21.23;;;11.00;;
5845;SDS011;2949;50.778;7.094;2023-03-01T02:27:35;17.07;;;9.30;;
5845;SDS011;2949;50.778;7.094;2023-03-01T02:30:13;17.47;;;8.77;;
5845;SDS011;2949;50.778;7.094;2023-03-01T02:32:39;19.17;;;10.30;;
5845;SDS011;2949;50.778;7.094;2023-03-01T02:35:07;16.00;;;8.90;;
5845;SDS011;2949;50.778;7.094;2023-03-01T02:37:35;21.20;;;9.23;;
5845;SDS011;2949;50.778;7.094;2023-03-01T02:40:03;20.23;;;9.97;;
5845;SDS011;2949;50.778;7.094;2023-03-01T02:42:32;15.53;;;9.40;;
5845;SDS011;2949;50.778;7.094;2023-03-01T02:45:04;26.50;;;9.93;;
5845;SDS011;2949;50.778;7.094;2023-03-01T02:47:30;20.80;;;9.80;;
5845;SDS011;2949;50.778;7.094;2023-03-01T02:49:55;19.30;;;9.87;;
5845;SDS011;2949;50.778;7.094;2023-03-01T02:52:40;26.43;;;9.77;;
5845;SDS011;2949;50.778;7.094;2023-03-01T02:55:21;23.10;;;9.67;;
5845;SDS011;2949;50.778;7.094;2023-03-01T02:57:47;17.10;;;9.50;;
5845;SDS011;2949;50.778;7.094;2023-03-01T03:00:21;19.30;;;10.17;;
5845;SDS011;2949;50.778;7.094;2023-03-01T03:02:52;17.10;;;9.23;;
5845;SDS011;2949;50.778;7.094;2023-03-01T03:05:20;20.13;;;9.97;;
5845;SDS011;2949;50.778;7.094;2023-03-01T03:07:48;15.57;;;8.93;;
5845;SDS011;2949;50.778;7.094;2023-03-01T03:10:37;20.53;;;10.27;;
5845;SDS011;2949;50.778;7.094;2023-03-01T03:13:03;17.80;;;9.80;;
5845;SDS011;2949;50.778;7.094;2023-03-01T03:15:31;17.27;;;9.73;;
5845;SDS011;2949;50.778;7.094;2023-03-01T03:18:00;22.57;;;11.07;;
5845;SDS011;2949;50.778;7.094;2023-03-01T03:20:27;22.03;;;11.03;;
5845;SDS011;2949;50.778;7.094;2023-03-01T03:22:53;21.17;;;10.73;;
5845;SDS011;2949;50.778;7.094;2023-03-01T03:25:20;24.73;;;11.30;;
5845;SDS011;2949;50.778;7.094;2023-03-01T03:27:47;23.50;;;10.50;;
5845;SDS011;2949;50.778;7.094;2023-03-01T03:30:15;24.30;;;10.60;;
5845;SDS011;2949;50.778;7.094;2023-03-01T03:32:43;23.20;;;10.80;;
5845;SDS011;2949;50.778;7.094;2023-03-01T03:35:29;24.50;;;12.27;;
5845;SDS011;2949;50.778;7.094;2023-03-01T03:37:57;17.83;;;10.70;;
5845;SDS011;2949;50.778;7.094;2023-03-01T03:40:26;23.90;;;10.80;;
5845;SDS011;2949;50.778;7.094;2023-03-01T03:42:58;23.83;;;10.63;;
5845;SDS011;2949;50.778;7.094;2023-03-01T03:45:23;23.80;;;10.80;;
5845;SDS011;2949;50.778;7.094;2023-03-01T03:47:49;21.47;;;10.60;;
5845;SDS011;2949;50.778;7.094;2023-03-01T03:50:15;27.20;;;12.03;;
5845;SDS011;2949;50.778;7.094;2023-03-01T03:52:42;22.70;;;10.73;;
5845;SDS011;2949;50.778;7.094;2023-03-01T03:55:08;22.63;;;11.33;;
5845;SDS011;2949;50.778;7.094;2023-03-01T03:57:35;26.40;;;11.80;;
5845;SDS011;2949;50.778;7.094;2023-03-01T04:00:02;22.43;;;11.00;;
5845;SDS011;2949;50.778;7.094;2023-03-01T04:02:30;25.90;;;11.30;;
5845;SDS011;2949;50.778;7.094;2023-03-01T04:04:56;22.90;;;11.57;;
5845;SDS011;2949;50.778;7.094;2023-03-01T04:07:21;17.67;;;10.50;;
5845;SDS011;2949;50.778;7.094;2023-03-01T04:09:46;21.53;;;10.70;;
5845;SDS011;2949;50.778;7.094;2023-03-01T04:12:12;23.30;;;11.13;;
5845;SDS011;2949;50.778;7.094;2023-03-01T04:14:38;21.07;;;10.90;;
5845;SDS011;2949;50.778;7.094;2023-03-01T04:17:03;19.17;;;10.47;;
5845;SDS011;2949;50.778;7.094;2023-03-01T04:19:30;21.13;;;10.53;;
5845;SDS011;2949;50.778;7.094;2023-03-01T04:22:00;34.80;;;12.33;;
5845;SDS011;2949;50.778;7.094;2023-03-01T04:24:32;18.03;;;10.47;;
5845;SDS011;2949;50.778;7.094;2023-03-01T04:26:58;24.97;;;11.10;;
5845;SDS011;2949;50.778;7.094;2023-03-01T04:29:23;26.60;;;12.50;;
5845;SDS011;2949;50.778;7.094;2023-03-01T04:31:49;28.23;;;11.90;;
5845;SDS011;2949;50.778;7.094;2023-03-01T04:34:14;23.77;;;10.47;;
5845;SDS011;2949;50.778;7.094;2023-03-01T04:36:40;31.87;;;14.03;;
5845;SDS011;2949;50.778;7.094;2023-03-01T04:39:06;27.10;;;12.40;;
5845;SDS011;2949;50.778;7.094;2023-03-01T04:41:37;25.13;;;12.17;;
5845;SDS011;2949;50.778;7.094;2023-03-01T04:44:08;20.73;;;11.17;;
5845;SDS011;2949;50.778;7.094;2023-03-01T04:46:34;24.73;;;11.90;;
5845;SDS011;2949;50.778;7.094;2023-03-01T04:49:00;26.27;;;10.83;;
5845;SDS011;2949;50.778;7.094;2023-03-01T04:51:27;22.53;;;10.63;;
5845;SDS011;2949;50.778;7.094;2023-03-01T04:53:52;19.90;;;11.67;;
5845;SDS011;2949;50.778;7.094;2023-03-01T04:56:18;26.07;;;12.00;;
5845;SDS011;2949;50.778;7.094;2023-03-01T04:58:43;22.20;;;12.30;;
5845;SDS011;2949;50.778;7.094;2023-03-01T05:01:10;22.00;;;11.63;;
5845;SDS011;2949;50.778;7.094;2023-03-01T05:03:40;21.87;;;10.90;;
5845;SDS011;2949;50.778;7.094;2023-03-01T05:06:13;20.40;;;10.97;;
5845;SDS011;2949;50.778;7.094;2023-03-01T05:08:40;19.17;;;10.53;;
5845;SDS011;2949;50.778;7.094;2023-03-01T05:11:06;17.87;;;10.77;;
5845;SDS011;2949;50.778;7.094;2023-03-01T05:13:33;23.23;;;11.30;;
5845;SDS011;2949;50.778;7.094;2023-03-01T05:16:00;24.10;;;11.30;;
5845;SDS011;2949;50.778;7.094;2023-03-01T05:18:28;22.40;;;11.70;;
5845;SDS011;2949;50.778;7.094;2023-03-01T05:20:55;23.10;;;11.70;;
5845;SDS011;2949;50.778;7.094;2023-03-01T05:23:26;36.47;;;14.70;;
5845;SDS011;2949;50.778;7.094;2023-03-01T05:25:52;38.90;;;16.77;;
5845;SDS011;2949;50.778;7.094;2023-03-01T05:28:18;54.70;;;18.20;;
5845;SDS011;2949;50.778;7.094;2023-03-01T05:30:44;59.90;;;20.87;;
5845;SDS011;2949;50.778;7.094;2023-03-01T05:33:11;49.77;;;21.07;;
5845;SDS011;2949;50.778;7.094;2023-03-01T05:35:39;71.57;;;25.20;;
5845;SDS011;2949;50.778;7.094;2023-03-01T05:38:07;70.27;;;23.73;;
5845;SDS011;2949;50.778;7.094;2023-03-01T05:40:33;58.27;;;21.00;;
5845;SDS011;2949;50.778;7.094;2023-03-01T05:42:59;63.43;;;23.20;;
5845;SDS011;2949;50.778;7.094;2023-03-01T05:45:26;42.50;;;16.47;;
5845;SDS011;2949;50.778;7.094;2023-03-01T05:47:52;38.83;;;15.20;;
5845;SDS011;2949;50.778;7.094;2023-03-01T05:50:20;25.90;;;12.70;;
5845;SDS011;2949;50.778;7.094;2023-03-01T05:52:49;30.50;;;12.50;;
5845;SDS011;2949;50.778;7.094;2023-03-01T05:55:16;31.87;;;13.97;;
5845;SDS011;2949;50.778;7.094;2023-03-01T05:57:43;23.90;;;12.23;;
5845;SDS011;2949;50.778;7.094;2023-03-01T06:00:09;33.83;;;15.13;;
5845;SDS011;2949;50.778;7.094;2023-03-01T06:02:36;26.23;;;13.60;;
5845;SDS011;2949;50.778;7.094;2023-03-01T06:05:02;30.00;;;14.47;;
5845;SDS011;2949;50.778;7.094;2023-03-01T06:07:29;24.43;;;12.57;;
5845;SDS011;2949;50.778;7.094;2023-03-01T06:09:55;29.37;;;13.60;;
5845;SDS011;2949;50.778;7.094;2023-03-01T06:12:20;25.73;;;13.00;;
5845;SDS011;2949;50.778;7.094;2023-03-01T06:14:46;32.23;;;13.60;;
5845;SDS011;2949;50.778;7.094;2023-03-01T06:17:12;30.00;;;14.03;;
5845;SDS011;2949;50.778;7.094;2023-03-01T06:19:38;28.00;;;13.80;;
5845;SDS011;2949;50.778;7.094;2023-03-01T06:22:04;23.97;;;11.13;;
5845;SDS011;2949;50.778;7.094;2023-03-01T06:24:29;29.77;;;13.60;;
5845;SDS011;2949;50.778;7.094;2023-03-01T06:26:55;28.30;;;13.77;;
5845;SDS011;2949;50.778;7.094;2023-03-01T06:29:21;26.70;;;12.37;;
5845;SDS011;2949;50.778;7.094;2023-03-01T06:31:47;26.23;;;12.90;;
5845;SDS011;2949;50.778;7.094;2023-03-01T06:34:13;30.40;;;13.43;;
5845;SDS011;2949;50.778;7.094;2023-03-01T06:36:39;23.67;;;12.03;;
5845;SDS011;2949;50.778;7.094;2023-03-01T06:39:05;23.07;;;11.90;;
5845;SDS011;2949;50.778;7.094;2023-03-01T06:41:31;26.60;;;13.40;;
5845;SDS011;2949;50.778;7.094;2023-03-01T06:43:58;24.30;;;13.67;;
5845;SDS011;2949;50.778;7.094;2023-03-01T06:46:24;27.40;;;13.57;;
5845;SDS011;2949;50.778;7.094;2023-03-01T06:48:49;31.03;;;13.60;;
5845;SDS011;2949;50.778;7.094;2023-03-01T06:51:15;27.17;;;13.60;;
5845;SDS011;2949;50.778;7.094;2023-03-01T06:53:40;23.83;;;12.20;;
5845;SDS011;2949;50.778;7.094;2023-03-01T06:56:06;28.23;;;13.07;;
5845;SDS011;2949;50.778;7.094;2023-03-01T06:58:31;25.40;;;13.93;;
5845;SDS011;2949;50.778;7.094;2023-03-01T07:00:57;34.43;;;16.67;;
5845;SDS011;2949;50.778;7.094;2023-03-01T07:03:23;32.53;;;13.47;;
5845;SDS011;2949;50.778;7.094;2023-03-01T07:05:49;31.33;;;14.30;;
5845;SDS011;2949;50.778;7.094;2023-03-01T07:08:17;27.93;;;13.33;;
5845;SDS011;2949;50.778;7.094;2023-03-01T07:10:43;35.53;;;15.53;;
5845;SDS011;2949;50.778;7.094;2023-03-01T07:13:08;24.63;;;13.57;;
5845;SDS011;2949;50.778;7.094;2023-03-01T07:15:34;21.13;;;10.97;;
5845;SDS011;2949;50.778;7.094;2023-03-01T07:17:59;17.33;;;9.87;;
5845;SDS011;2949;50.778;7.094;2023-03-01T07:20:25;16.43;;;9.43;;
5845;SDS011;2949;50.778;7.094;2023-03-01T07:22:51;13.27;;;8.10;;
5845;SDS011;2949;50.778;7.094;2023-03-01T07:25:17;12.30;;;7.97;;
5845;SDS011;2949;50.778;7.094;2023-03-01T07:27:42;15.77;;;8.60;;
5845;SDS011;2949;50.778;7.094;2023-03-01T07:30:08;10.80;;;6.93;;
5845;SDS011;2949;50.778;7.094;2023-03-01T07:32:34;16.10;;;8.13;;
5845;SDS011;2949;50.778;7.094;2023-03-01T07:35:00;15.20;;;7.90;;
5845;SDS011;2949;50.778;7.094;2023-03-01T07:37:26;12.20;;;6.90;;
5845;SDS011;2949;50.778;7.094;2023-03-01T07:39:51;11.83;;;7.60;;
5845;SDS011;2949;50.778;7.094;2023-03-01T07:42:16;11.60;;;8.07;;
5845;SDS011;2949;50.778;7.094;2023-03-01T07:44:42;13.93;;;8.03;;
5845;SDS011;2949;50.778;7.094;2023-03-01T07:47:07;11.80;;;7.00;;
5845;SDS011;2949;50.778;7.094;2023-03-01T07:49:33;12.63;;;7.67;;
5845;SDS011;2949;50.778;7.094;2023-03-01T07:51:59;13.90;;;8.47;;
5845;SDS011;2949;50.778;7.094;2023-03-01T07:54:24;13.87;;;8.03;;
5845;SDS011;2949;50.778;7.094;2023-03-01T07:56:51;11.63;;;7.60;;
5845;SDS011;2949;50.778;7.094;2023-03-01T07:59:17;14.37;;;8.30;;
5845;SDS011;2949;50.778;7.094;2023-03-01T08:01:42;13.97;;;8.93;;
5845;SDS011;2949;50.778;7.094;2023-03-01T08:04:08;11.10;;;7.30;;
5845;SDS011;2949;50.778;7.094;2023-03-01T08:06:34;11.87;;;7.97;;
5845;SDS011;2949;50.778;7.094;2023-03-01T08:09:00;11.30;;;7.50;;
5845;SDS011;2949;50.778;7.094;2023-03-01T08:11:26;11.63;;;7.97;;
5845;SDS011;2949;50.778;7.094;2023-03-01T08:13:55;13.83;;;8.70;;
5845;SDS011;2949;50.778;7.094;2023-03-01T08:16:22;13.30;;;7.90;;
5845;SDS011;2949;50.778;7.094;2023-03-01T08:18:47;13.53;;;9.13;;
5845;SDS011;2949;50.778;7.094;2023-03-01T08:21:14;16.87;;;9.40;;
5845;SDS011;2949;50.778;7.094;2023-03-01T08:23:41;18.50;;;8.17;;
5845;SDS011;2949;50.778;7.094;2023-03-01T08:26:12;14.63;;;8.77;;
5845;SDS011;2949;50.778;7.094;2023-03-01T08:28:39;13.63;;;8.27;;
5845;SDS011;2949;50.778;7.094;2023-03-01T08:31:13;11.80;;;7.80;;
5845;SDS011;2949;50.778;7.094;2023-03-01T08:33:38;10.60;;;7.33;;
5845;SDS011;2949;50.778;7.094;2023-03-01T08:36:04;15.93;;;8.50;;
5845;SDS011;2949;50.778;7.094;2023-03-01T08:38:31;12.17;;;7.67;;
5845;SDS011;2949;50.778;7.094;2023-03-01T08:41:01;13.77;;;8.47;;
5845;SDS011;2949;50.778;7.094;2023-03-01T08:43:27;17.70;;;10.50;;
5845;SDS011;2949;50.778;7.094;2023-03-01T08:45:53;15.50;;;9.07;;
5845;SDS011;2949;50.778;7.094;2023-03-01T08:48:19;14.43;;;8.90;;
5845;SDS011;2949;50.778;7.094;2023-03-01T08:50:44;14.43;;;9.00;;
5845;SDS011;2949;50.778;7.094;2023-03-01T08:53:09;13.10;;;8.23;;
5845;SDS011;2949;50.778;7.094;2023-03-01T08:55:35;13.67;;;9.40;;
5845;SDS011;2949;50.778;7.094;2023-03-01T08:58:00;15.57;;;9.17;;
5845;SDS011;2949;50.778;7.094;2023-03-01T09:00:26;16.37;;;9.80;;
5845;SDS011;2949;50.778;7.094;2023-03-01T09:02:51;14.13;;;8.80;;
5845;SDS011;2949;50.778;7.094;2023-03-01T09:05:17;14.50;;;8.90;;
5845;SDS011;2949;50.778;7.094;2023-03-01T09:07:42;15.30;;;8.60;;
5845;SDS011;2949;50.778;7.094;2023-03-01T09:10:08;16.80;;;8.90;;
5845;SDS011;2949;50.778;7.094;2023-03-01T09:12:34;11.70;;;7.93;;
5845;SDS011;2949;50.778;7.094;2023-03-01T09:15:00;13.77;;;9.30;;
5845;SDS011;2949;50.778;7.094;2023-03-01T09:17:25;15.23;;;9.70;;
5845;SDS011;2949;50.778;7.094;2023-03-01T09:19:51;18.17;;;9.40;;
5845;SDS011;2949;50.778;7.094;2023-03-01T09:22:16;14.90;;;9.20;;
5845;SDS011;2949;50.778;7.094;2023-03-01T09:24:42;18.73;;;9.97;;
5845;SDS011;2949;50.778;7.094;2023-03-01T09:27:07;14.10;;;8.20;;
5845;SDS011;2949;50.778;7.094;2023-03-01T09:29:37;18.83;;;8.40;;
5845;SDS011;2949;50.778;7.094;2023-03-01T09:32:03;18.43;;;9.20;;
5845;SDS011;2949;50.778;7.094;2023-03-01T09:34:29;14.87;;;9.17;;
5845;SDS011;2949;50.778;7.094;2023-03-01T09:36:54;17.70;;;8.57;;
5845;SDS011;2949;50.778;7.094;2023-03-01T09:39:22;14.00;;;9.40;;
5845;SDS011;2949;50.778;7.094;2023-03-01T09:46:56;13.73;;;8.77;;
5845;SDS011;2949;50.778;7.094;2023-03-01T09:49:26;19.07;;;9.80;;
5845;SDS011;2949;50.778;7.094;2023-03-01T09:51:57;16.47;;;9.03;;
5845;SDS011;2949;50.778;7.094;2023-03-01T09:54:34;11.37;;;8.23;;
5845;SDS011;2949;50.778;7.094;2023-03-01T09:59:42;15.43;;;9.43;;
5845;SDS011;2949;50.778;7.094;2023-03-01T10:10:34;10.70;;;7.67;;
5845;SDS011;2949;50.778;7.094;2023-03-01T10:16:13;11.10;;;7.80;;
5845;SDS011;2949;50.778;7.094;2023-03-01T10:18:42;10.00;;;7.37;;
5845;SDS011;2949;50.778;7.094;2023-03-01T10:21:17;12.03;;;7.33;;
5845;SDS011;2949;50.778;7.094;2023-03-01T10:23:44;18.57;;;8.93;;
5845;SDS011;2949;50.778;7.094;2023-03-01T10:29:14;10.50;;;7.07;;
5845;SDS011;2949;50.778;7.094;2023-03-01T10:31:47;9.80;;;7.27;;
5845;SDS011;2949;50.778;7.094;2023-03-01T10:34:19;11.93;;;7.00;;
5845;SDS011;2949;50.778;7.094;2023-03-01T10:36:48;15.27;;;8.17;;
5845;SDS011;2949;50.778;7.094;2023-03-01T10:39:20;8.43;;;6.60;;
5845;SDS011;2949;50.778;7.094;2023-03-01T10:41:56;9.17;;;7.20;;
5845;SDS011;2949;50.778;7.094;2023-03-01T10:44:43;12.83;;;7.50;;
5845;SDS011;2949;50.778;7.094;2023-03-01T10:47:23;12.33;;;7.87;;
5845;SDS011;2949;50.778;7.094;2023-03-01T10:52:37;10.40;;;7.23;;
5845;SDS011;2949;50.778;7.094;2023-03-01T10:57:38;9.20;;;6.27;;
5845;SDS011;2949;50.778;7.094;2023-03-01T11:05:34;10.93;;;6.57;;
5845;SDS011;2949;50.778;7.094;2023-03-01T11:08:00;9.53;;;6.20;;
5845;SDS011;2949;50.778;7.094;2023-03-01T11:10:35;14.17;;;6.77;;
5845;SDS011;2949;50.778;7.094;2023-03-01T11:13:14;9.60;;;5.90;;
5845;SDS011;2949;50.778;7.094;2023-03-01T11:15:42;9.53;;;6.57;;
5845;SDS011;2949;50.778;7.094;2023-03-01T11:18:21;12.60;;;6.13;;
5845;SDS011;2949;50.778;7.094;2023-03-01T11:20:48;11.10;;;6.90;;
5845;SDS011;2949;50.778;7.094;2023-03-01T11:23:17;14.17;;;8.43;;
5845;SDS011;2949;50.778;7.094;2023-03-01T11:25:45;11.23;;;7.00;;
5845;SDS011;2949;50.778;7.094;2023-03-01T11:28:17;9.17;;;6.43;;
5845;SDS011;2949;50.778;7.094;2023-03-01T11:30:59;11.50;;;7.30;;
5845;SDS011;2949;50.778;7.094;2023-03-01T11:33:35;12.90;;;7.90;;
5845;SDS011;2949;50.778;7.094;2023-03-01T11:36:06;12.30;;;7.63;;
5845;SDS011;2949;50.778;7.094;2023-03-01T11:38:38;12.17;;;6.97;;
5845;SDS011;2949;50.778;7.094;2023-03-01T11:41:11;9.63;;;6.00;;
5845;SDS011;2949;50.778;7.094;2023-03-01T11:49:00;12.43;;;7.10;;
5845;SDS011;2949;50.778;7.094;2023-03-01T11:57:02;15.73;;;7.17;;
5845;SDS011;2949;50.778;7.094;2023-03-01T11:59:46;12.50;;;7.57;;
5845;SDS011;2949;50.778;7.094;2023-03-01T12:02:27;14.80;;;7.33;;
5845;SDS011;2949;50.778;7.094;2023-03-01T12:08:21;18.03;;;8.50;;
5845;SDS011;2949;50.778;7.094;2023-03-01T12:19:18;14.63;;;7.60;;
5845;SDS011;2949;50.778;7.094;2023-03-01T12:25:04;11.70;;;7.53;;
5845;SDS011;2949;50.778;7.094;2023-03-01T12:27:50;13.93;;;6.67;;
5845;SDS011;2949;50.778;7.094;2023-03-01T12:41:13;12.43;;;5.80;;
5845;SDS011;2949;50.778;7.094;2023-03-01T12:49:56;10.77;;;6.43;;
5845;SDS011;2949;50.778;7.094;2023-03-01T12:55:06;13.63;;;7.10;;
5845;SDS011;2949;50.778;7.094;2023-03-01T12:57:46;7.90;;;5.30;;
5845;SDS011;2949;50.778;7.094;2023-03-01T13:03:26;15.77;;;6.90;;
5845;SDS011;2949;50.778;7.094;2023-03-01T13:06:17;10.20;;;6.57;;
5845;SDS011;2949;50.778;7.094;2023-03-01T13:08:51;9.07;;;6.20;;
5845;SDS011;2949;50.778;7.094;2023-03-01T13:11:36;10.40;;;5.37;;
5845;SDS011;2949;50.778;7.094;2023-03-01T13:14:51;6.50;;;5.37;;
5845;SDS011;2949;50.778;7.094;2023-03-01T13:16:54;7.87;;;5.63;;
5845;SDS011;2949;50.778;7.094;2023-03-01T13:19:24;12.47;;;7.50;;
5845;SDS011;2949;50.778;7.094;2023-03-01T13:21:52;9.63;;;6.20;;
5845;SDS011;2949;50.778;7.094;2023-03-01T13:32:43;10.57;;;5.63;;
5845;SDS011;2949;50.778;7.094;2023-03-01T13:37:39;8.93;;;4.93;;
5845;SDS011;2949;50.778;7.094;2023-03-01T13:42:48;8.70;;;5.40;;
5845;SDS011;2949;50.778;7.094;2023-03-01T13:45:25;9.03;;;5.40;;
5845;SDS011;2949;50.778;7.094;2023-03-01T13:48:08;6.47;;;5.17;;
5845;SDS011;2949;50.778;7.094;2023-03-01T13:50:43;9.73;;;5.20;;
5845;SDS011;2949;50.778;7.094;2023-03-01T13:53:23;7.20;;;4.67;;
5845;SDS011;2949;50.778;7.094;2023-03-01T13:55:51;9.77;;;5.07;;
5845;SDS011;2949;50.778;7.094;2023-03-01T14:01:00;9.93;;;5.70;;
5845;SDS011;2949;50.778;7.094;2023-03-01T14:03:27;11.97;;;5.20;;
5845;SDS011;2949;50.778;7.094;2023-03-01T14:08:36;6.40;;;4.87;;
5845;SDS011;2949;50.778;7.094;2023-03-01T14:14:13;9.83;;;4.93;;
5845;SDS011;2949;50.778;7.094;2023-03-01T14:17:04;7.80;;;4.20;;
5845;SDS011;2949;50.778;7.094;2023-03-01T14:19:43;9.10;;;4.73;;
5845;SDS011;2949;50.778;7.094;2023-03-01T14:24:47;7.83;;;4.50;;
5845;SDS011;2949;50.778;7.094;2023-03-01T14:27:14;5.60;;;3.87;;
5845;SDS011;2949;50.778;7.094;2023-03-01T14:29:42;7.27;;;4.17;;
5845;SDS011;2949;50.778;7.094;2023-03-01T14:32:20;8.70;;;4.47;;
5845;SDS011;2949;50.778;7.094;2023-03-01T14:34:49;6.70;;;4.87;;
5845;SDS011;2949;50.778;7.094;2023-03-01T14:37:29;8.17;;;4.60;;
5845;SDS011;2949;50.778;7.094;2023-03-01T14:39:57;8.17;;;5.03;;
5845;SDS011;2949;50.778;7.094;2023-03-01T14:42:25;13.80;;;6.17;;
5845;SDS011;2949;50.778;7.094;2023-03-01T14:44:54;6.60;;;4.57;;
5845;SDS011;2949;50.778;7.094;2023-03-01T14:47:25;11.20;;;5.07;;
5845;SDS011;2949;50.778;7.094;2023-03-01T14:49:57;6.07;;;4.00;;
5845;SDS011;2949;50.778;7.094;2023-03-01T14:52:31;9.97;;;5.20;;
5845;SDS011;2949;50.778;7.094;2023-03-01T14:55:07;9.17;;;5.50;;
5845;SDS011;2949;50.778;7.094;2023-03-01T14:57:44;10.63;;;5.83;;
5845;SDS011;2949;50.778;7.094;2023-03-01T15:00:20;9.07;;;5.80;;
5845;SDS011;2949;50.778;7.094;2023-03-01T15:02:48;12.70;;;5.63;;
5845;SDS011;2949;50.778;7.094;2023-03-01T15:05:25;12.03;;;6.50;;
5845;SDS011;2949;50.778;7.094;2023-03-01T15:07:53;10.97;;;6.17;;
5845;SDS011;2949;50.778;7.094;2023-03-01T15:10:24;11.17;;;5.57;;
5845;SDS011;2949;50.778;7.094;2023-03-01T15:13:11;6.87;;;5.00;;
5845;SDS011;2949;50.778;7.094;2023-03-01T15:15:38;12.33;;;6.40;;
5845;SDS011;2949;50.778;7.094;2023-03-01T15:18:14;10.37;;;4.77;;
5845;SDS011;2949;50.778;7.094;2023-03-01T15:20:43;7.97;;;4.70;;
5845;SDS011;2949;50.778;7.094;2023-03-01T15:23:28;6.67;;;4.60;;
5845;SDS011;2949;50.778;7.094;2023-03-01T15:25:55;8.53;;;4.43;;
5845;SDS011;2949;50.778;7.094;2023-03-01T15:28:33;6.60;;;4.33;;
5845;SDS011;2949;50.778;7.094;2023-03-01T15:31:21;5.60;;;4.30;;
5845;SDS011;2949;50.778;7.094;2023-03-01T15:33:48;9.83;;;5.50;;
5845;SDS011;2949;50.778;7.094;2023-03-01T15:39:03;5.43;;;4.60;;
5845;SDS011;2949;50.778;7.094;2023-03-01T15:41:52;12.17;;;4.90;;
5845;SDS011;2949;50.778;7.094;2023-03-01T15:44:23;7.33;;;4.37;;
5845;SDS011;2949;50.778;7.094;2023-03-01T15:46:53;7.00;;;4.40;;
5845;SDS011;2949;50.778;7.094;2023-03-01T15:49:27;12.70;;;5.10;;
5845;SDS011;2949;50.778;7.094;2023-03-01T15:52:23;8.93;;;5.53;;
5845;SDS011;2949;50.778;7.094;2023-03-01T15:54:57;8.10;;;5.10;;
5845;SDS011;2949;50.778;7.094;2023-03-01T15:57:25;8.50;;;5.37;;
5845;SDS011;2949;50.778;7.094;2023-03-01T15:59:51;11.20;;;5.47;;
5845;SDS011;2949;50.778;7.094;2023-03-01T16:02:16;10.17;;;4.97;;
5845;SDS011;2949;50.778;7.094;2023-03-01T16:04:42;11.23;;;5.57;;
5845;SDS011;2949;50.778;7.094;2023-03-01T16:07:08;5.30;;;4.57;;
5845;SDS011;2949;50.778;7.094;2023-03-01T16:09:34;8.47;;;5.07;;
5845;SDS011;2949;50.778;7.094;2023-03-01T16:12:00;8.80;;;5.40;;
5845;SDS011;2949;50.778;7.094;2023-03-01T16:14:26;8.00;;;5.10;;
5845;SDS011;2949;50.778;7.094;2023-03-01T16:16:52;11.60;;;6.20;;
5845;SDS011;2949;50.778;7.094;2023-03-01T16:19:17;8.07;;;5.60;;
5845;SDS011;2949;50.778;7.094;2023-03-01T16:21:43;12.40;;;5.73;;
5845;SDS011;2949;50.778;7.094;2023-03-01T16:24:11;8.93;;;6.07;;
5845;SDS011;2949;50.778;7.094;2023-03-01T16:26:37;7.80;;;4.73;;
5845;SDS011;2949;50.778;7.094;2023-03-01T16:29:03;9.80;;;5.00;;
5845;SDS011;2949;50.778;7.094;2023-03-01T16:31:29;11.00;;;5.63;;
5845;SDS011;2949;50.778;7.094;2023-03-01T16:33:56;8.43;;;4.40;;
5845;SDS011;2949;50.778;7.094;2023-03-01T16:36:23;8.93;;;4.73;;
5845;SDS011;2949;50.778;7.094;2023-03-01T16:38:51;8.80;;;4.27;;
5845;SDS011;2949;50.778;7.094;2023-03-01T16:41:18;7.37;;;4.70;;
5845;SDS011;2949;50.778;7.094;2023-03-01T16:43:45;10.47;;;4.40;;
5845;SDS011;2949;50.778;7.094;2023-03-01T16:46:12;13.83;;;4.70;;
5845;SDS011;2949;50.778;7.094;2023-03-01T16:48:39;7.23;;;4.20;;
5845;SDS011;2949;50.778;7.094;2023-03-01T16:51:05;6.17;;;3.50;;
5845;SDS011;2949;50.778;7.094;2023-03-01T16:53:32;13.20;;;4.13;;
5845;SDS011;2949;50.778;7.094;2023-03-01T16:56:01;7.57;;;4.50;;
5845;SDS011;2949;50.778;7.094;2023-03-01T16:58:27;5.73;;;4.00;;
5845;SDS011;2949;50.778;7.094;2023-03-01T17:00:53;6.10;;;3.77;;
5845;SDS011;2949;50.778;7.094;2023-03-01T17:03:19;10.77;;;5.33;;